Time;durP1;ratioP1;P1;durP2;ratioP2;P2;SDS_P1;SDS_P2;PMS_P1;PMS_P2;Temp;Humidity;BMP_temperature;BMP_pressure;BME280_temperature;BME280_humidity;BME280_pressure;Samples;Min_cycle;Max_cycle;Signal;HPM_P1;HPM_P2
2024/01/15 00:00:17;;;;;;;8.53;1.03;;;;;;;-145.18;100.00;46976.84;4992732;28;20029;-71
2024/01/15 00:02:43;;;;;;;13.57;1.07;;;;;;;-145.18;100.00;46976.84;4991059;28;20034;-72
2024/01/15 00:05:08;;;;;;;9.60;0.97;;;;;;;-145.18;100.00;46972.94;4981137;28;20109;-71
2024/01/15 00:07:34;;;;;;;10.87;1.30;;;;;;;-145.18;100.00;46976.84;4992402;28;20046;-73
2024/01/15 00:10:00;;;;;;;8.90;1.10;;;;;;;-145.18;100.00;46972.94;4992486;28;20089;-71
2024/01/15 00:12:25;;;;;;;8.07;1.10;;;;;;;-145.18;100.00;46976.84;4992261;28;20281;-71
2024/01/15 00:14:51;;;;;;;8.40;0.60;;;;;;;-145.18;100.00;46972.94;4975251;28;20030;-72
2024/01/15 00:17:16;;;;;;;5.87;1.20;;;;;;;-145.18;100.00;46980.75;4991564;28;20030;-72
2024/01/15 00:19:41;;;;;;;6.17;1.50;;;;;;;-145.18;100.00;46974.91;4990659;28;20038;-72
2024/01/15 00:22:07;;;;;;;10.43;1.00;;;;;;;-145.18;100.00;46974.91;4992192;28;20545;-72
2024/01/15 00:24:32;;;;;;;1.73;0.50;;;;;;;-145.18;100.00;46980.75;4992663;28;20037;-72
2024/01/15 00:26:57;;;;;;;14.23;1.30;;;;;;;-145.18;100.00;46980.75;4992347;28;20057;-73
2024/01/15 00:29:23;;;;;;;5.13;0.77;;;;;;;-145.18;100.00;46976.84;4992331;28;20031;-72
2024/01/15 00:31:48;;;;;;;6.07;1.20;;;;;;;-145.18;100.00;46972.94;4992566;28;20026;-72
2024/01/15 00:34:13;;;;;;;6.80;1.47;;;;;;;-145.18;100.00;46974.91;4991180;28;20467;-71
2024/01/15 00:36:39;;;;;;;9.63;1.13;;;;;;;-145.18;100.00;46980.75;4990450;28;20050;-72
2024/01/15 00:39:07;;;;;;;8.37;1.00;;;;;;;-145.18;100.00;46974.91;4990836;28;20410;-72
2024/01/15 00:41:33;;;;;;;6.00;1.67;;;;;;;-145.18;100.00;46971.00;4991506;28;20026;-72
2024/01/15 00:43:58;;;;;;;10.40;1.20;;;;;;;-145.18;100.00;46972.94;4991917;28;20049;-72
2024/01/15 00:46:23;;;;;;;9.37;1.77;;;;;;;-145.18;100.00;46972.94;4992011;28;20026;-72
2024/01/15 00:48:49;;;;;;;6.23;1.33;;;;;;;-145.18;100.00;46971.00;4992607;28;20077;-72
2024/01/15 00:51:14;;;;;;;18.07;2.53;;;;;;;-145.18;100.00;46972.94;4991888;28;20505;-72
2024/01/15 00:53:40;;;;;;;7.53;1.03;;;;;;;-145.18;100.00;46969.03;4987988;28;20479;-72
2024/01/15 00:56:05;;;;;;;10.33;1.50;;;;;;;-145.18;100.00;46974.91;4988493;28;20029;-73
2024/01/15 00:58:30;;;;;;;8.23;1.00;;;;;;;-145.18;100.00;46974.91;4991529;28;20105;-72
2024/01/15 01:00:56;;;;;;;13.00;1.17;;;;;;;-145.18;100.00;46972.94;4991892;28;20058;-72
2024/01/15 01:03:21;;;;;;;15.00;1.60;;;;;;;-145.18;100.00;46972.94;4991928;28;20117;-72
2024/01/15 01:05:49;;;;;;;12.10;2.27;;;;;;;-145.18;100.00;46972.94;4990601;28;20041;-72
2024/01/15 01:08:15;;;;;;;11.40;2.15;;;;;;;-145.18;100.00;46972.94;4991775;28;20478;-72
2024/01/15 01:10:42;;;;;;;7.47;1.17;;;;;;;-145.18;100.00;46971.00;4974533;28;20030;-72
2024/01/15 01:13:08;;;;;;;6.47;0.97;;;;;;;-145.18;100.00;46969.03;4991702;28;20042;-72
2024/01/15 01:15:33;;;;;;;8.07;1.53;;;;;;;-145.18;100.00;46972.94;4991565;28;20366;-72
2024/01/15 01:17:59;;;;;;;6.87;1.10;;;;;;;-145.18;100.00;46965.13;4991214;28;20034;-71
2024/01/15 01:20:24;;;;;;;9.80;1.30;;;;;;;-145.18;100.00;46967.09;4991948;28;20038;-72
2024/01/15 01:22:49;;;;;;;11.73;2.03;;;;;;;-145.18;100.00;46963.19;4991783;28;20398;-72
2024/01/15 01:25:15;;;;;;;16.37;1.60;;;;;;;-145.18;100.00;46965.13;4991557;28;20077;-72
2024/01/15 01:27:41;;;;;;;10.33;1.33;;;;;;;-145.18;100.00;46967.09;4991367;28;20038;-72
2024/01/15 01:30:06;;;;;;;13.03;1.60;;;;;;;-145.18;100.00;46967.09;4995446;28;20502;-72
2024/01/15 01:32:32;;;;;;;8.90;1.40;;;;;;;-145.18;100.00;46963.19;4977250;28;20065;-72
2024/01/15 01:34:57;;;;;;;19.30;1.33;;;;;;;-145.18;100.00;46963.19;4992536;28;20466;-72
2024/01/15 01:37:23;;;;;;;6.67;1.00;;;;;;;-145.18;100.00;46961.22;4992257;28;20058;-72
2024/01/15 01:39:48;;;;;;;12.23;1.23;;;;;;;-145.18;100.00;46959.25;4995268;28;20061;-72
2024/01/15 01:42:14;;;;;;;4.53;1.23;;;;;;;-145.18;100.00;46959.25;4994398;28;20117;-72
2024/01/15 01:44:39;;;;;;;14.17;2.03;;;;;;;-145.18;100.00;46957.31;4962077;28;20034;-72
2024/01/15 01:47:05;;;;;;;10.87;2.03;;;;;;;-145.18;100.00;46961.22;4993557;28;20086;-71
2024/01/15 01:49:31;;;;;;;7.47;1.03;;;;;;;-145.18;100.00;46961.22;4995365;28;20038;-72
2024/01/15 01:51:59;;;;;;;16.90;1.67;;;;;;;-145.18;100.00;46957.31;4995337;28;20038;-72
2024/01/15 01:54:27;;;;;;;7.27;1.27;;;;;;;-145.18;100.00;46957.31;4995272;28;20268;-72
2024/01/15 01:56:53;;;;;;;7.50;0.90;;;;;;;-145.18;100.00;46955.34;4994675;28;20833;-72
2024/01/15 01:59:19;;;;;;;7.45;1.15;;;;;;;-145.18;100.00;46953.41;4995198;28;20263;-72
2024/01/15 02:01:44;;;;;;;10.13;1.40;;;;;;;-145.18;100.00;46955.34;4994355;28;20096;-73
2024/01/15 02:04:11;;;;;;;6.30;1.40;;;;;;;-145.18;100.00;46951.44;4994291;28;20081;-73
2024/01/15 02:06:37;;;;;;;8.03;1.17;;;;;;;-145.18;100.00;46947.53;4995081;28;20050;-73
2024/01/15 02:09:05;;;;;;;18.30;2.40;;;;;;;-145.18;100.00;46955.34;4995096;28;20299;-73
2024/01/15 02:11:31;;;;;;;4.53;0.83;;;;;;;-145.18;100.00;46953.41;4994954;28;20026;-73
2024/01/15 02:13:56;;;;;;;7.63;0.90;;;;;;;-145.18;100.00;46949.50;4994917;28;20318;-73
2024/01/15 02:16:21;;;;;;;11.03;1.80;;;;;;;-145.18;100.00;46949.50;4993435;28;20756;-73
2024/01/15 02:18:47;;;;;;;12.43;1.83;;;;;;;-145.18;100.00;46951.44;4994563;28;20038;-74
2024/01/15 02:21:12;;;;;;;12.60;1.27;;;;;;;-145.18;100.00;46953.41;4992420;28;20088;-74
2024/01/15 02:23:38;;;;;;;10.97;1.20;;;;;;;-145.18;100.00;46947.53;4994559;28;20027;-74
2024/01/15 02:26:05;;;;;;;8.03;1.00;;;;;;;-145.18;100.00;46953.41;4977265;28;20030;-74
2024/01/15 02:28:32;;;;;;;11.93;0.83;;;;;;;-145.18;100.00;46949.50;4992386;28;20479;-70
2024/01/15 02:30:57;;;;;;;9.60;1.13;;;;;;;-145.18;100.00;46945.59;4993506;28;20375;-70
2024/01/15 02:33:23;;;;;;;7.07;0.80;;;;;;;-145.18;100.00;46945.59;4987759;28;20256;-70
2024/01/15 02:35:50;;;;;;;4.93;0.83;;;;;;;-145.18;100.00;46941.69;4994086;28;20228;-70
2024/01/15 02:38:16;;;;;;;7.37;0.90;;;;;;;-145.18;100.00;46945.59;4993717;28;20062;-70
2024/01/15 02:40:41;;;;;;;18.77;1.63;;;;;;;-145.18;100.00;46937.78;4993303;28;20279;-69
2024/01/15 02:43:07;;;;;;;7.47;0.80;;;;;;;-145.18;100.00;46937.78;4994223;28;20283;-70
2024/01/15 02:45:32;;;;;;;10.33;1.87;;;;;;;-145.18;100.00;46933.88;4992978;28;20054;-69
2024/01/15 02:47:58;;;;;;;14.03;1.10;;;;;;;-145.18;100.00;46933.88;4994051;28;20034;-70
2024/01/15 02:50:23;;;;;;;22.87;2.60;;;;;;;-145.18;100.00;46928.00;4981266;28;20030;-70
2024/01/15 02:52:49;;;;;;;6.37;0.80;;;;;;;-145.18;100.00;46928.00;4993227;28;20030;-69
2024/01/15 02:55:14;;;;;;;5.50;0.90;;;;;;;-145.18;100.00;46928.00;4993352;28;20034;-69
2024/01/15 02:57:40;;;;;;;11.20;1.07;;;;;;;-145.18;100.00;46928.00;4993732;28;20616;-70
2024/01/15 03:00:07;;;;;;;10.13;1.53;;;;;;;-145.18;100.00;46929.97;4992727;28;20031;-69
2024/01/15 03:02:32;;;;;;;10.10;1.27;;;;;;;-145.18;100.00;46926.06;4993188;28;20125;-69
2024/01/15 03:04:58;;;;;;;7.63;0.87;;;;;;;-145.18;100.00;46922.16;4993564;28;20343;-69
2024/01/15 03:07:23;;;;;;;9.27;1.20;;;;;;;-145.18;100.00;46926.06;4993556;28;20173;-69
2024/01/15 03:09:48;;;;;;;5.00;1.53;;;;;;;-145.18;100.00;46926.06;4993384;28;20042;-69
2024/01/15 03:12:14;;;;;;;17.10;2.67;;;;;;;-145.18;100.00;46928.00;4975453;28;20112;-69
2024/01/15 03:14:39;;;;;;;5.30;1.10;;;;;;;-145.18;100.00;46928.00;4992935;28;20037;-69
2024/01/15 03:17:04;;;;;;;12.80;1.80;;;;;;;-145.18;100.00;46926.06;4995785;28;20035;-69
2024/01/15 03:19:30;;;;;;;33.97;3.13;;;;;;;-145.18;100.00;46928.00;4992656;28;20552;-69
2024/01/15 03:21:56;;;;;;;13.37;2.20;;;;;;;-145.18;100.00;46926.06;4993101;28;20090;-70
2024/01/15 03:24:21;;;;;;;9.83;1.33;;;;;;;-145.18;100.00;46928.00;4993381;28;20486;-69
2024/01/15 03:26:47;;;;;;;8.30;1.10;;;;;;;-145.18;100.00;46926.06;4993417;28;20116;-69
2024/01/15 03:29:12;;;;;;;7.03;0.67;;;;;;;-145.18;100.00;46929.97;4992878;28;20041;-68
2024/01/15 03:31:38;;;;;;;6.17;0.70;;;;;;;-145.18;100.00;46933.88;4993319;28;20030;-69
2024/01/15 03:34:03;;;;;;;4.03;0.97;;;;;;;-145.18;100.00;46926.06;4992572;28;20098;-69
2024/01/15 03:36:28;;;;;;;11.10;1.77;;;;;;;-145.18;100.00;46929.97;4992368;28;20730;-68
2024/01/15 03:38:54;;;;;;;8.43;0.70;;;;;;;-145.18;100.00;46931.91;4992619;28;20030;-68
2024/01/15 03:41:19;;;;;;;7.40;0.77;;;;;;;-145.18;100.00;46933.88;4993345;28;20049;-69
2024/01/15 03:43:45;;;;;;;13.17;0.90;;;;;;;-145.18;100.00;46935.81;4975367;28;20034;-69
2024/01/15 03:46:10;;;;;;;14.67;0.90;;;;;;;-145.18;100.00;46937.78;4993436;28;20505;-69
2024/01/15 03:48:35;;;;;;;5.83;0.73;;;;;;;-145.18;100.00;46929.97;4992959;28;20022;-69
2024/01/15 03:51:01;;;;;;;8.00;0.80;;;;;;;-145.18;100.00;46939.72;4992791;28;20070;-69
2024/01/15 03:53:26;;;;;;;8.23;1.70;;;;;;;-145.18;100.00;46935.81;4992197;28;20022;-69
2024/01/15 03:55:52;;;;;;;9.57;1.00;;;;;;;-145.18;100.00;46937.78;4992913;28;20045;-69
2024/01/15 03:58:17;;;;;;;8.23;0.63;;;;;;;-145.18;100.00;46937.78;4992842;28;20026;-69
2024/01/15 04:00:43;;;;;;;7.47;1.13;;;;;;;-145.18;100.00;46937.78;4981359;28;20034;-69
2024/01/15 04:03:09;;;;;;;4.73;0.77;;;;;;;-145.18;100.00;46935.81;4992535;28;20026;-68
2024/01/15 04:05:34;;;;;;;8.87;0.70;;;;;;;-145.18;100.00;46939.72;4992991;28;20029;-69
2024/01/15 04:08:00;;;;;;;2.47;0.70;;;;;;;-145.18;100.00;46937.78;4992620;28;20490;-69
2024/01/15 04:10:25;;;;;;;1.67;0.67;;;;;;;-145.18;100.00;46935.81;4992702;28;20491;-69
2024/01/15 04:12:51;;;;;;;4.53;1.10;;;;;;;-145.18;100.00;46935.81;4992200;28;20049;-69
2024/01/15 04:15:16;;;;;;;3.83;0.90;;;;;;;-145.18;100.00;46939.72;4992889;28;20026;-69
2024/01/15 04:17:42;;;;;;;4.23;0.60;;;;;;;-145.18;100.00;46941.69;4992438;28;20026;-69
2024/01/15 04:20:08;;;;;;;4.53;0.50;;;;;;;-145.18;100.00;46933.88;4992740;28;20058;-69
2024/01/15 04:22:34;;;;;;;5.83;1.27;;;;;;;-145.18;100.00;46935.81;4992561;28;20026;-69
2024/01/15 04:25:00;;;;;;;3.55;0.60;;;;;;;-145.18;100.00;46941.69;4992595;28;20058;-69
2024/01/15 04:27:25;;;;;;;3.60;0.77;;;;;;;-145.18;100.00;46945.59;4990700;28;20114;-69
2024/01/15 04:29:51;;;;;;;2.53;0.50;;;;;;;-145.18;100.00;46943.63;4991042;28;20499;-69
2024/01/15 04:32:16;;;;;;;10.07;1.43;;;;;;;-145.18;100.00;46937.78;4991127;28;20105;-70
2024/01/15 04:34:41;;;;;;;6.20;0.70;;;;;;;-145.18;100.00;46941.69;4991059;28;20670;-70
2024/01/15 04:37:08;;;;;;;8.37;0.73;;;;;;;-145.18;100.00;46939.72;4991098;28;20093;-71
2024/01/15 04:39:33;;;;;;;6.47;0.50;;;;;;;-145.18;100.00;46943.63;4992140;28;20288;-71
2024/01/15 04:41:59;;;;;;;4.90;0.50;;;;;;;-145.18;100.00;46941.69;4992192;28;20046;-71
2024/01/15 04:44:24;;;;;;;7.47;0.83;;;;;;;-145.18;100.00;46949.50;4991514;28;20504;-72
2024/01/15 04:46:49;;;;;;;4.60;0.70;;;;;;;-145.18;100.00;46945.59;4974865;28;20036;-72
2024/01/15 04:49:15;;;;;;;1.93;0.30;;;;;;;-145.18;100.00;46949.50;4992019;28;20494;-72
2024/01/15 04:51:40;;;;;;;2.50;0.50;;;;;;;-145.18;100.00;46947.53;4990711;28;20084;-71
2024/01/15 04:54:05;;;;;;;1.20;0.33;;;;;;;-145.18;100.00;46947.53;4992034;28;20101;-72
2024/01/15 04:56:31;;;;;;;11.37;1.57;;;;;;;-145.18;100.00;46949.50;4991689;28;20491;-72
2024/01/15 04:58:57;;;;;;;4.07;0.47;;;;;;;-145.18;100.00;46951.44;4991946;28;20441;-72
2024/01/15 05:01:22;;;;;;;4.17;0.50;;;;;;;-145.18;100.00;46955.34;4991744;28;20026;-72
2024/01/15 05:03:48;;;;;;;7.80;0.70;;;;;;;-145.18;100.00;46951.44;4960989;28;20038;-72
2024/01/15 05:06:13;;;;;;;5.30;1.07;;;;;;;-145.18;100.00;46957.31;4978556;28;20030;-72
2024/01/15 05:08:38;;;;;;;4.83;0.70;;;;;;;-145.18;100.00;46955.34;4995822;28;20038;-72
2024/01/15 05:11:04;;;;;;;7.73;1.90;;;;;;;-145.18;100.00;46951.44;4995690;28;20037;-72
2024/01/15 05:13:29;;;;;;;2.00;0.50;;;;;;;-145.18;100.00;46959.25;4978505;28;20093;-73
2024/01/15 05:15:54;;;;;;;5.17;0.60;;;;;;;-145.18;100.00;46953.41;4994836;28;20117;-73
2024/01/15 05:18:20;;;;;;;1.50;0.50;;;;;;;-145.18;100.00;46955.34;4989866;28;20038;-73
2024/01/15 05:20:45;;;;;;;1.80;0.50;;;;;;;-145.18;100.00;46955.34;4995331;28;20045;-73
2024/01/15 05:23:11;;;;;;;0.73;0.30;;;;;;;-145.18;100.00;46953.41;4989577;28;20034;-73
2024/01/15 05:25:36;;;;;;;5.37;0.40;;;;;;;-145.18;100.00;46955.34;4993665;28;20042;-72
2024/01/15 05:28:02;;;;;;;2.63;0.40;;;;;;;-145.18;100.00;46961.22;4992081;28;20042;-73
2024/01/15 05:30:27;;;;;;;4.43;0.50;;;;;;;-145.18;100.00;46951.44;4994885;28;20558;-73
2024/01/15 05:32:53;;;;;;;0.60;0.30;;;;;;;-145.18;100.00;46959.25;4995588;28;20033;-73
2024/01/15 05:35:18;;;;;;;2.53;0.60;;;;;;;-145.18;100.00;46957.31;4992944;28;20043;-72
2024/01/15 05:37:45;;;;;;;3.20;0.60;;;;;;;-145.18;100.00;46959.25;4995373;28;20077;-73
2024/01/15 05:40:12;;;;;;;1.90;0.50;;;;;;;-145.18;100.00;46957.31;4995271;28;20042;-72
2024/01/15 05:42:37;;;;;;;1.45;0.45;;;;;;;-145.18;100.00;46953.41;4995016;28;20105;-72
2024/01/15 05:45:04;;;;;;;0.57;0.30;;;;;;;-145.18;100.00;46961.22;4994461;28;20046;-72
2024/01/15 05:47:30;;;;;;;3.50;0.40;;;;;;;-145.18;100.00;46955.34;4977836;28;20038;-72
2024/01/15 05:49:56;;;;;;;2.80;0.30;;;;;;;-145.18;100.00;46957.31;4991008;28;20030;-71
2024/01/15 05:52:22;;;;;;;1.48;0.50;;;;;;;-145.18;100.00;46959.25;4991501;28;20018;-72
2024/01/15 05:54:47;;;;;;;4.13;0.43;;;;;;;-145.18;100.00;46961.22;4978381;28;20380;-72
2024/01/15 05:57:13;;;;;;;3.80;0.40;;;;;;;-145.18;100.00;46961.22;4995212;28;20054;-71
2024/01/15 05:59:38;;;;;;;4.20;0.50;;;;;;;-145.18;100.00;46961.22;4993980;28;20108;-71
2024/01/15 06:02:04;;;;;;;2.00;1.40;;;;;;;-145.18;100.00;46967.09;4975766;28;20095;-71
2024/01/15 06:04:30;;;;;;;3.73;0.40;;;;;;;-145.18;100.00;46963.19;4992058;28;20034;-71
2024/01/15 06:06:55;;;;;;;1.00;0.33;;;;;;;-145.18;100.00;46961.22;4991072;28;20035;-71
2024/01/15 06:09:20;;;;;;;2.00;0.40;;;;;;;-145.18;100.00;46961.22;4992439;28;20026;-71
2024/01/15 06:11:46;;;;;;;4.37;1.10;;;;;;;-145.18;100.00;46963.19;4993222;28;20549;-71
2024/01/15 06:14:11;;;;;;;5.47;0.90;;;;;;;-145.18;100.00;46965.13;4993201;28;20023;-71
2024/01/15 06:16:37;;;;;;;2.27;0.53;;;;;;;-145.18;100.00;46965.13;4992219;28;20035;-71
2024/01/15 06:19:02;;;;;;;3.43;0.50;;;;;;;-145.18;100.00;46967.09;4992217;28;20028;-71
2024/01/15 06:21:28;;;;;;;1.60;0.63;;;;;;;-145.18;100.00;46961.22;4991605;28;20065;-71
2024/01/15 06:23:53;;;;;;;5.53;0.67;;;;;;;-145.18;100.00;46965.13;4991922;28;20061;-72
2024/01/15 06:26:19;;;;;;;5.37;1.00;;;;;;;-145.18;100.00;46965.13;4991852;28;20031;-72
2024/01/15 06:28:44;;;;;;;3.97;1.07;;;;;;;-145.18;100.00;46963.19;4992324;28;20037;-72
2024/01/15 06:31:10;;;;;;;6.67;1.33;;;;;;;-145.18;100.00;46965.13;4990704;28;20061;-72
2024/01/15 06:33:35;;;;;;;4.17;1.50;;;;;;;-145.18;100.00;46961.22;4974706;28;20030;-73
2024/01/15 06:36:00;;;;;;;4.40;1.33;;;;;;;-145.18;100.00;46961.22;4991246;28;20030;-72
2024/01/15 06:38:26;;;;;;;5.50;1.70;;;;;;;-145.18;100.00;46969.03;4992686;28;20062;-73
2024/01/15 06:40:52;;;;;;;5.82;1.75;;;;;;;-145.18;100.00;46971.00;4992535;28;20030;-72
2024/01/15 06:43:17;;;;;;;4.07;1.20;;;;;;;-145.18;100.00;46969.03;4989825;28;20046;-72
2024/01/15 06:45:43;;;;;;;3.97;1.17;;;;;;;-145.18;100.00;46971.00;4988180;28;20467;-71
2024/01/15 06:48:09;;;;;;;4.10;1.73;;;;;;;-145.18;100.00;46965.13;4993876;28;20078;-72
2024/01/15 06:50:35;;;;;;;5.73;1.30;;;;;;;-145.18;100.00;46967.09;4960900;28;20822;-72
2024/01/15 06:53:01;;;;;;;4.83;2.10;;;;;;;-145.18;100.00;46969.03;4994175;28;20441;-72
2024/01/15 06:55:26;;;;;;;6.20;2.60;;;;;;;-145.18;100.00;46969.03;4994041;28;20022;-72
2024/01/15 06:57:52;;;;;;;9.30;2.97;;;;;;;-145.18;100.00;46969.03;4994048;28;20073;-72
2024/01/15 07:00:19;;;;;;;8.57;3.20;;;;;;;-145.18;100.00;46965.13;4993872;28;20030;-72
2024/01/15 07:02:45;;;;;;;7.55;2.70;;;;;;;-145.18;100.00;46971.00;4993282;28;20054;-71
2024/01/15 07:05:10;;;;;;;3.03;1.70;;;;;;;-145.18;100.00;46967.09;4993268;28;20060;-71
2024/01/15 07:07:36;;;;;;;2.70;1.53;;;;;;;-145.18;100.00;46969.03;4992367;28;20030;-73
2024/01/15 07:10:03;;;;;;;4.20;0.97;;;;;;;-145.18;100.00;46969.03;4992670;28;20045;-72
2024/01/15 07:12:29;;;;;;;5.38;0.80;;;;;;;-145.18;100.00;46967.09;4978154;28;20022;-73
2024/01/15 07:14:55;;;;;;;1.90;0.40;;;;;;;-145.18;100.00;46969.03;4972701;28;20105;-72
2024/01/15 07:17:20;;;;;;;2.50;0.50;;;;;;;-145.18;100.00;46969.03;4987154;28;20030;-72
2024/01/15 07:19:46;;;;;;;1.43;0.40;;;;;;;-145.18;100.00;46969.03;4976062;28;20030;-72
2024/01/15 07:22:12;;;;;;;1.27;0.47;;;;;;;-145.18;100.00;46969.03;4991171;28;20054;-72
2024/01/15 07:24:37;;;;;;;1.97;0.60;;;;;;;-145.18;100.00;46971.00;4993362;28;20034;-72
2024/01/15 07:27:04;;;;;;;7.77;0.77;;;;;;;-145.18;100.00;46969.03;4988168;28;20142;-72
2024/01/15 07:29:30;;;;;;;2.70;0.38;;;;;;;-145.18;100.00;46969.03;4990940;28;20492;-73
2024/01/15 07:31:55;;;;;;;1.13;0.30;;;;;;;-145.18;100.00;46969.03;4993338;28;20057;-73
2024/01/15 07:34:22;;;;;;;1.23;0.50;;;;;;;-145.18;100.00;46972.94;4975764;28;20272;-72
2024/01/15 07:36:47;;;;;;;1.50;0.60;;;;;;;-145.18;100.00;46971.00;4993032;28;20145;-73
2024/01/15 07:39:13;;;;;;;1.90;0.60;;;;;;;-145.18;100.00;46971.00;4993558;28;20137;-72
2024/01/15 07:41:39;;;;;;;1.15;0.40;;;;;;;-145.18;100.00;46972.94;4993363;28;20054;-72
2024/01/15 07:44:05;;;;;;;3.73;0.40;;;;;;;-145.18;100.00;46969.03;4989564;28;20522;-73
2024/01/15 07:46:30;;;;;;;0.40;0.20;;;;;;;-145.18;100.00;46976.84;4987763;28;20434;-75
2024/01/15 07:48:57;;;;;;;1.27;0.73;;;;;;;-145.18;100.00;46971.00;4991997;28;20084;-74
2024/01/15 07:51:23;;;;;;;1.60;0.32;;;;;;;-145.18;100.00;46974.91;4993234;28;20093;-74
2024/01/15 07:53:48;;;;;;;2.45;0.77;;;;;;;-145.18;100.00;46969.03;4992850;28;20026;-74
2024/01/15 07:56:14;;;;;;;3.53;0.67;;;;;;;-145.18;100.00;46974.91;4992865;28;20173;-74
2024/01/15 07:58:39;;;;;;;4.37;0.63;;;;;;;-145.18;100.00;46971.00;4991143;28;20454;-75
2024/01/15 08:01:06;;;;;;;3.47;0.90;;;;;;;-145.18;100.00;46974.91;4992700;28;20046;-73
2024/01/15 08:03:31;;;;;;;4.15;0.80;;;;;;;-145.18;100.00;46971.00;4991241;28;20088;-72
2024/01/15 08:05:59;;;;;;;3.87;0.87;;;;;;;-145.18;100.00;46972.94;4992741;28;20038;-72
2024/01/15 08:08:25;;;;;;;6.43;1.40;;;;;;;-145.18;100.00;46976.84;4992594;28;20030;-73
2024/01/15 08:10:50;;;;;;;7.20;0.90;;;;;;;-145.18;100.00;46972.94;4992545;28;20030;-73
2024/01/15 08:13:15;;;;;;;5.47;2.10;;;;;;;-145.18;100.00;46972.94;4991477;28;20053;-73
2024/01/15 08:15:41;;;;;;;6.77;1.93;;;;;;;-145.18;100.00;46974.91;4992581;28;20033;-73
2024/01/15 08:18:07;;;;;;;5.33;2.00;;;;;;;-145.18;100.00;46972.94;4974983;28;20479;-72
2024/01/15 08:20:32;;;;;;;7.10;2.53;;;;;;;-145.18;100.00;46974.91;4991156;28;20023;-72
2024/01/15 08:22:58;;;;;;;13.60;3.37;;;;;;;-145.18;100.00;46980.75;4991801;28;20478;-72
2024/01/15 08:25:23;;;;;;;5.97;3.07;;;;;;;-145.18;100.00;46974.91;4974677;28;20117;-73
2024/01/15 08:27:49;;;;;;;5.60;3.00;;;;;;;-145.18;100.00;46972.94;4992620;28;20038;-73
2024/01/15 08:30:14;;;;;;;4.10;2.80;;;;;;;-145.18;100.00;46971.00;4992667;28;20026;-73
2024/01/15 08:32:42;;;;;;;4.90;3.23;;;;;;;-145.18;100.00;46972.94;4992426;28;20022;-73
2024/01/15 08:35:08;;;;;;;6.32;3.00;;;;;;;-145.18;100.00;46967.09;4991842;28;20026;-73
2024/01/15 08:37:33;;;;;;;4.17;2.97;;;;;;;-145.18;100.00;46961.22;4991565;28;20043;-73
2024/01/15 08:39:59;;;;;;;6.47;3.20;;;;;;;-145.18;100.00;46963.19;4992752;28;20322;-73
2024/01/15 08:42:24;;;;;;;8.40;3.10;;;;;;;-145.18;100.00;46961.22;4992395;28;20442;-72
2024/01/15 08:44:50;;;;;;;6.63;2.57;;;;;;;-145.18;100.00;46957.31;4991299;28;20486;-73
2024/01/15 08:47:16;;;;;;;9.87;3.43;;;;;;;-145.18;100.00;46957.31;4992298;28;20511;-73
2024/01/15 08:49:42;;;;;;;7.40;1.70;;;;;;;-145.18;100.00;46955.34;4990963;28;20034;-73
2024/01/15 08:52:08;;;;;;;6.53;1.85;;;;;;;-145.18;100.00;46949.50;4989163;28;20030;-72
2024/01/15 08:54:34;;;;;;;8.13;2.10;;;;;;;-145.18;100.00;46953.41;4992111;28;20490;-73
2024/01/15 08:56:59;;;;;;;8.33;2.97;;;;;;;-145.18;100.00;46951.44;4992333;28;20044;-73
2024/01/15 08:59:25;;;;;;;8.97;1.53;;;;;;;-145.18;100.00;46949.50;4992522;28;20026;-73
2024/01/15 09:01:52;;;;;;;12.82;1.80;;;;;;;-145.18;100.00;46951.44;4992143;28;20081;-73
2024/01/15 09:04:17;;;;;;;12.98;1.85;;;;;;;-145.18;100.00;46949.50;4991943;28;20096;-72
2024/01/15 09:06:49;;;;;;;6.77;1.10;;;;;;;-145.18;100.00;46949.50;4991799;28;20034;-73
2024/01/15 09:09:14;;;;;;;5.07;1.27;;;;;;;-145.18;100.00;46947.53;4991954;28;20022;-73
2024/01/15 09:11:42;;;;;;;7.90;2.00;;;;;;;-145.18;100.00;46943.63;4991904;28;20081;-73
2024/01/15 09:14:09;;;;;;;10.38;2.42;;;;;;;-145.18;100.00;46937.78;4992135;28;20479;-73
2024/01/15 09:16:35;;;;;;;8.40;1.45;;;;;;;-145.18;100.00;46939.72;4991839;28;20030;-73
2024/01/15 09:19:00;;;;;;;12.87;1.30;;;;;;;-145.18;100.00;46933.88;4992008;28;20505;-73
2024/01/15 09:21:26;;;;;;;9.23;1.00;;;;;;;-145.18;100.00;46935.81;4991695;28;20108;-73
2024/01/15 09:23:51;;;;;;;4.80;1.10;;;;;;;-145.18;100.00;46929.97;4990888;28;20027;-73
2024/01/15 09:26:17;;;;;;;9.13;1.67;;;;;;;-145.18;100.00;46931.91;4989548;28;20034;-73
2024/01/15 09:28:43;;;;;;;16.10;1.60;;;;;;;-145.18;100.00;46928.00;4991976;28;20387;-72
2024/01/15 09:31:08;;;;;;;9.03;1.43;;;;;;;-145.18;100.00;46929.97;4991830;28;20030;-73
2024/01/15 09:33:34;;;;;;;17.40;1.90;;;;;;;-145.18;100.00;46929.97;4990545;28;20034;-73
2024/01/15 09:36:03;;;;;;;8.87;1.10;;;;;;;-145.18;100.00;46929.97;4991921;28;20022;-73
2024/01/15 09:38:29;;;;;;;11.73;1.53;;;;;;;-145.18;100.00;46929.97;4974249;28;20061;-73
2024/01/15 09:40:55;;;;;;;7.03;1.40;;;;;;;-145.18;100.00;46931.91;4992048;28;20342;-73
2024/01/15 09:43:22;;;;;;;7.80;1.13;;;;;;;-145.18;100.00;46928.00;4991965;28;20546;-73
2024/01/15 09:45:49;;;;;;;7.63;0.60;;;;;;;-145.18;100.00;46924.09;4991629;28;20053;-73
2024/01/15 09:48:15;;;;;;;5.00;0.60;;;;;;;-145.18;100.00;46926.06;4974244;28;20034;-73
2024/01/15 09:50:40;;;;;;;2.47;0.70;;;;;;;-145.18;100.00;46926.06;4993737;28;20435;-73
2024/01/15 09:53:06;;;;;;;0.93;0.30;;;;;;;-145.18;100.00;46924.09;4995164;28;20041;-73
2024/01/15 09:55:35;;;;;;;4.33;0.40;;;;;;;-145.18;100.00;46928.00;4993741;28;20034;-73
2024/01/15 09:58:02;;;;;;;6.65;0.70;;;;;;;-145.18;100.00;46922.16;4993902;28;20054;-73
2024/01/15 10:00:27;;;;;;;5.55;0.70;;;;;;;-145.18;100.00;46920.19;4982297;28;20490;-73
2024/01/15 10:02:53;;;;;;;6.57;1.03;;;;;;;-145.18;100.00;46922.16;4995362;28;20037;-72
2024/01/15 10:05:18;;;;;;;7.23;0.93;;;;;;;-145.18;100.00;46920.19;4994980;28;20513;-72
2024/01/15 10:07:45;;;;;;;2.37;0.40;;;;;;;-145.18;100.00;46920.19;4994626;28;20026;-72
2024/01/15 10:10:11;;;;;;;5.47;0.52;;;;;;;-145.18;100.00;46914.34;4995067;28;20026;-72
2024/01/15 10:12:37;;;;;;;3.97;0.60;;;;;;;-145.18;100.00;46920.19;4995606;28;20038;-72
2024/01/15 10:15:04;;;;;;;7.15;0.77;;;;;;;-145.18;100.00;46922.16;4995188;28;20034;-71
2024/01/15 10:17:30;;;;;;;7.85;0.80;;;;;;;-145.18;100.00;46920.19;4994426;28;20113;-71
2024/01/15 10:19:56;;;;;;;2.20;0.85;;;;;;;-145.18;100.00;46920.19;4993878;28;20034;-71
2024/01/15 10:22:23;;;;;;;6.33;0.50;;;;;;;-145.18;100.00;46926.06;4994631;28;20030;-71
2024/01/15 10:24:48;;;;;;;6.03;0.83;;;;;;;-145.18;100.00;46918.25;4993759;28;20042;-71
2024/01/15 10:27:14;;;;;;;11.07;1.07;;;;;;;-145.18;100.00;46924.09;4994095;28;20818;-72
2024/01/15 10:29:41;;;;;;;4.40;0.67;;;;;;;-145.18;100.00;46926.06;4994718;28;20029;-72
2024/01/15 10:32:10;;;;;;;5.53;1.27;;;;;;;-145.18;100.00;46924.09;4977119;28;20563;-72
2024/01/15 10:34:39;;;;;;;6.17;1.17;;;;;;;-145.18;100.00;46924.09;4994529;28;20264;-72
2024/01/15 10:37:07;;;;;;;6.67;0.87;;;;;;;-145.18;100.00;46918.25;4994198;28;20784;-72
2024/01/15 10:39:33;;;;;;;3.13;1.00;;;;;;;-145.18;100.00;46922.16;4994261;28;20267;-72
2024/01/15 10:41:58;;;;;;;10.03;0.80;;;;;;;-145.18;100.00;46920.19;4994184;28;20260;-72
2024/01/15 10:44:25;;;;;;;4.33;0.90;;;;;;;-145.18;100.00;46920.19;4994770;28;20144;-72
2024/01/15 10:46:51;;;;;;;12.57;1.93;;;;;;;-145.18;100.00;46928.00;4994439;28;20034;-72
2024/01/15 10:49:18;;;;;;;5.87;1.50;;;;;;;-145.18;100.00;46926.06;4994310;28;20321;-72
2024/01/15 10:51:44;;;;;;;3.53;0.70;;;;;;;-145.18;100.00;46924.09;4992801;28;20267;-72
2024/01/15 10:54:11;;;;;;;8.30;0.93;;;;;;;-145.18;100.00;46920.19;4992669;28;20284;-72
2024/01/15 10:56:37;;;;;;;2.80;0.70;;;;;;;-145.18;100.00;46914.34;4992443;28;20038;-72
2024/01/15 10:59:03;;;;;;;6.27;0.60;;;;;;;-145.18;100.00;46918.25;4993956;28;20275;-72